createdAt,value
2022-11-11T00:00:10.413Z,6.10
2022-11-11T00:01:31.941Z,6.10
2022-11-11T00:02:57.759Z,6.10
2022-11-11T00:04:19.308Z,6.10
2022-11-11T00:05:40.185Z,6.10
2022-11-11T00:07:01.626Z,6.10
2022-11-11T00:08:23.830Z,6.10
2022-11-11T00:09:45.454Z,6.10
2022-11-11T00:11:08.386Z,6.10
2022-11-11T00:12:30.103Z,6.10
2022-11-11T00:13:51.895Z,6.10
2022-11-11T00:15:13.487Z,6.10
2022-11-11T00:16:49.318Z,6.10
2022-11-11T00:18:30.875Z,6.10
2022-11-11T00:20:12.357Z,6.10
2022-11-11T00:21:51.829Z,6.10
2022-11-11T00:23:39.630Z,6.00
2022-11-11T00:25:07.135Z,6.00
2022-11-11T00:26:44.442Z,6.00
2022-11-11T00:28:06.466Z,6.00
2022-11-11T00:29:28.206Z,6.00
2022-11-11T00:30:49.824Z,6.00
2022-11-11T00:32:27.767Z,5.90
2022-11-11T00:33:53.184Z,5.90
2022-11-11T00:35:32.239Z,6.00
2022-11-11T00:36:53.079Z,6.00
2022-11-11T00:38:36.358Z,6.00
2022-11-11T00:39:56.969Z,6.00
2022-11-11T00:41:20.526Z,6.00
2022-11-11T00:42:41.417Z,6.00
2022-11-11T00:44:03.157Z,6.00
2022-11-11T00:45:24.872Z,6.00
2022-11-11T00:47:04.139Z,6.00
2022-11-11T00:48:43.426Z,6.10
2022-11-11T00:50:27.070Z,6.10
2022-11-11T00:51:48.688Z,6.10
2022-11-11T00:53:11.417Z,6.10
2022-11-11T00:54:33.243Z,6.10
2022-11-11T00:55:53.966Z,6.10
2022-11-11T00:57:15.771Z,6.20
2022-11-11T00:58:36.470Z,6.20
2022-11-11T00:59:57.966Z,6.20
2022-11-11T01:01:19.075Z,6.20
2022-11-11T01:02:41.269Z,6.20
2022-11-11T01:04:04.874Z,6.20
2022-11-11T01:05:27.905Z,6.10
2022-11-11T01:06:49.933Z,6.10
2022-11-11T01:08:10.882Z,6.10
2022-11-11T01:09:32.502Z,6.00
2022-11-11T01:10:53.312Z,6.00
2022-11-11T01:12:15.092Z,6.00
2022-11-11T01:13:36.681Z,6.00
2022-11-11T01:14:57.314Z,6.00
2022-11-11T01:16:21.703Z,5.90
2022-11-11T01:17:42.364Z,6.00
2022-11-11T01:19:04.333Z,6.00
2022-11-11T01:20:26.308Z,6.00
2022-11-11T01:21:48.181Z,6.00
2022-11-11T01:23:10.532Z,6.00
2022-11-11T01:24:32.475Z,6.00
2022-11-11T01:25:53.374Z,6.00
2022-11-11T01:27:15.337Z,5.90
2022-11-11T01:28:36.043Z,5.90
2022-11-11T01:29:57.710Z,5.90
2022-11-11T01:31:21.298Z,5.90
2022-11-11T01:32:42.499Z,5.80
2022-11-11T01:34:04.230Z,5.80
2022-11-11T01:35:26.199Z,5.80
2022-11-11T01:36:48.200Z,5.80
2022-11-11T01:38:09.456Z,5.80
2022-11-11T01:39:31.258Z,5.80
2022-11-11T01:40:51.974Z,5.80
2022-11-11T01:42:13.513Z,5.80
2022-11-11T01:43:34.354Z,5.80
2022-11-11T01:44:56.094Z,5.80
2022-11-11T01:46:29.228Z,5.90
2022-11-11T01:48:26.615Z,5.80
2022-11-11T01:49:55.741Z,5.80
2022-11-11T01:51:26.282Z,5.80
2022-11-11T01:52:47.992Z,5.80
2022-11-11T01:54:15.337Z,5.80
2022-11-11T01:55:37.310Z,5.80
2022-11-11T01:57:04.579Z,5.80
2022-11-11T01:58:25.523Z,5.90
2022-11-11T01:59:51.783Z,5.90
2022-11-11T02:01:12.208Z,5.80
2022-11-11T02:02:38.651Z,5.80
2022-11-11T02:04:20.215Z,5.80
2022-11-11T02:05:45.511Z,5.80
2022-11-11T02:07:11.118Z,5.70
2022-11-11T02:08:34.781Z,5.70
2022-11-11T02:09:58.661Z,5.70
2022-11-11T02:11:37.398Z,5.70
2022-11-11T02:13:17.111Z,5.70
2022-11-11T02:14:43.120Z,5.70
2022-11-11T02:16:05.442Z,5.70
2022-11-11T02:17:30.704Z,5.70
2022-11-11T02:18:53.189Z,5.70
2022-11-11T02:20:18.234Z,5.70
2022-11-11T02:21:59.465Z,5.70
2022-11-11T02:23:29.479Z,5.70
2022-11-11T02:24:52.681Z,5.70
2022-11-11T02:26:18.576Z,5.70
2022-11-11T02:27:42.274Z,5.70
2022-11-11T02:29:06.794Z,5.60
2022-11-11T02:30:28.708Z,5.60
2022-11-11T02:31:49.529Z,5.60
2022-11-11T02:33:10.893Z,5.60
2022-11-11T02:34:32.824Z,5.60
2022-11-11T02:35:57.924Z,5.50
2022-11-11T02:37:21.483Z,5.50
2022-11-11T02:38:44.120Z,5.50
2022-11-11T02:40:09.449Z,5.50
2022-11-11T02:41:48.698Z,5.40
2022-11-11T02:43:10.187Z,5.40
2022-11-11T02:44:30.978Z,5.40
2022-11-11T02:45:52.661Z,5.40
2022-11-11T02:47:14.223Z,5.30
2022-11-11T02:48:36.483Z,5.30
2022-11-11T02:49:58.166Z,5.30
2022-11-11T02:51:19.027Z,5.30
2022-11-11T02:52:40.681Z,5.30
2022-11-11T02:54:03.295Z,5.20
2022-11-11T02:55:26.154Z,5.20
2022-11-11T02:57:05.723Z,5.20
2022-11-11T02:58:27.257Z,5.10
2022-11-11T02:59:47.791Z,5.10
2022-11-11T03:01:09.280Z,5.10
2022-11-11T03:02:30.493Z,5.10
2022-11-11T03:03:52.479Z,5.10
2022-11-11T03:05:14.216Z,5.10
2022-11-11T03:06:35.117Z,5.20
2022-11-11T03:07:56.710Z,5.20
2022-11-11T03:09:17.713Z,5.20
2022-11-11T03:10:40.953Z,5.20
2022-11-11T03:12:03.248Z,5.20
2022-11-11T03:13:24.896Z,5.20
2022-11-11T03:14:47.045Z,5.20
2022-11-11T03:16:28.193Z,5.10
2022-11-11T03:17:48.639Z,5.10
2022-11-11T03:19:10.929Z,5.10
2022-11-11T03:20:49.800Z,5.10
2022-11-11T03:22:53.878Z,5.10
2022-11-11T03:23:53.686Z,5.10
2022-11-11T03:25:35.547Z,5.10
2022-11-11T03:26:58.705Z,5.10
2022-11-11T03:28:20.764Z,5.10
2022-11-11T03:29:42.872Z,5.10
2022-11-11T03:31:04.515Z,5.10
2022-11-11T03:32:26.607Z,5.10
2022-11-11T03:33:47.753Z,5.10
2022-11-11T03:35:09.870Z,5.10
2022-11-11T03:36:50.694Z,5.00
2022-11-11T03:38:15.852Z,5.00
2022-11-11T03:39:37.607Z,5.10
2022-11-11T03:41:00.045Z,5.10
2022-11-11T03:42:22.730Z,5.10
2022-11-11T03:43:44.538Z,5.10
2022-11-11T03:45:05.494Z,5.00
2022-11-11T03:46:27.238Z,5.00
2022-11-11T03:47:48.108Z,5.00
2022-11-11T03:49:09.620Z,5.00
2022-11-11T03:50:30.427Z,5.00
2022-11-11T03:51:51.881Z,5.00
2022-11-11T03:53:14.613Z,5.00
2022-11-11T03:54:35.374Z,5.10
2022-11-11T03:55:57.128Z,5.10
2022-11-11T03:57:33.205Z,5.10
2022-11-11T03:58:56.022Z,5.00
2022-11-11T04:00:18.820Z,5.00
2022-11-11T04:01:58.392Z,5.00
2022-11-11T04:03:38.261Z,4.90
2022-11-11T04:05:17.924Z,4.90
2022-11-11T04:06:57.264Z,4.90
2022-11-11T04:08:37.687Z,4.90
2022-11-11T04:10:22.368Z,4.90
2022-11-11T04:11:46.488Z,4.80
2022-11-11T04:13:25.299Z,4.80
2022-11-11T04:15:06.363Z,4.70
2022-11-11T04:16:27.251Z,4.70
2022-11-11T04:17:48.960Z,4.70
2022-11-11T04:19:28.097Z,4.70
2022-11-11T04:21:07.660Z,4.70
2022-11-11T04:22:29.369Z,4.70
2022-11-11T04:23:49.816Z,4.70
2022-11-11T04:25:29.247Z,4.70
2022-11-11T04:26:51.189Z,4.70
2022-11-11T04:28:30.421Z,4.70
2022-11-11T04:29:52.804Z,4.70
2022-11-11T04:31:14.298Z,4.70
2022-11-11T04:32:42.673Z,4.70
2022-11-11T04:34:03.425Z,4.70
2022-11-11T04:35:26.641Z,4.70
2022-11-11T04:36:47.597Z,4.70
2022-11-11T04:38:26.912Z,4.70
2022-11-11T04:40:17.835Z,4.60
2022-11-11T04:42:01.800Z,4.60
2022-11-11T04:43:21.364Z,4.50
2022-11-11T04:45:00.712Z,4.50
2022-11-11T04:46:22.848Z,4.50
2022-11-11T04:47:58.448Z,4.50
2022-11-11T04:49:19.020Z,4.50
2022-11-11T04:50:42.270Z,4.60
2022-11-11T04:52:22.232Z,4.60
2022-11-11T04:53:44.046Z,4.70
2022-11-11T04:55:24.182Z,4.70
2022-11-11T04:56:48.006Z,4.70
2022-11-11T04:58:09.831Z,4.70
2022-11-11T04:59:30.215Z,4.70
2022-11-11T05:00:51.958Z,4.70
2022-11-11T05:02:32.760Z,4.70
2022-11-11T05:03:53.540Z,4.70
2022-11-11T05:05:15.085Z,4.70
2022-11-11T05:06:59.661Z,4.70
2022-11-11T05:08:39.062Z,4.70
2022-11-11T05:09:59.764Z,4.70
2022-11-11T05:11:22.292Z,4.80
2022-11-11T05:12:47.696Z,4.80
2022-11-11T05:14:26.662Z,4.90
2022-11-11T05:16:06.172Z,4.90
2022-11-11T05:17:46.798Z,5.00
2022-11-11T05:19:29.477Z,5.00
2022-11-11T05:21:09.159Z,5.00
2022-11-11T05:22:33.750Z,5.00
2022-11-11T05:24:12.952Z,5.10
2022-11-11T05:25:34.084Z,5.10
2022-11-11T05:26:55.512Z,5.10
2022-11-11T05:28:17.160Z,5.10
2022-11-11T05:29:38.015Z,5.10
2022-11-11T05:30:59.828Z,5.10
2022-11-11T05:32:22.812Z,5.10
2022-11-11T05:33:46.049Z,5.10
2022-11-11T05:35:09.464Z,5.10
2022-11-11T05:36:30.081Z,5.10
2022-11-11T05:38:05.476Z,5.10
2022-11-11T05:39:26.992Z,5.10
2022-11-11T05:40:47.964Z,5.00
2022-11-11T05:42:09.915Z,5.00
2022-11-11T05:43:30.326Z,5.00
2022-11-11T05:44:52.008Z,5.00
2022-11-11T05:46:12.684Z,5.00
2022-11-11T05:47:34.100Z,4.90
2022-11-11T05:49:14.901Z,4.90
2022-11-11T05:50:41.217Z,4.90
2022-11-11T05:52:02.851Z,4.80
2022-11-11T05:53:24.682Z,4.80
2022-11-11T05:54:46.954Z,4.70
2022-11-11T05:56:07.613Z,4.70
2022-11-11T05:57:29.252Z,4.70
2022-11-11T05:58:50.847Z,4.70
2022-11-11T06:00:13.474Z,4.60
2022-11-11T06:01:34.785Z,4.60
2022-11-11T06:03:02.618Z,4.60
2022-11-11T06:04:26.023Z,4.50
2022-11-11T06:05:47.832Z,4.50
2022-11-11T06:07:10.438Z,4.50
2022-11-11T06:08:32.284Z,4.50
2022-11-11T06:10:14.026Z,4.60
2022-11-11T06:11:35.335Z,4.60
2022-11-11T06:13:07.576Z,4.60
2022-11-11T06:14:29.167Z,4.60
2022-11-11T06:15:49.598Z,4.60
2022-11-11T06:17:11.072Z,4.60
2022-11-11T06:18:31.914Z,4.70
2022-11-11T06:19:55.018Z,4.80
2022-11-11T06:21:16.737Z,4.80
2022-11-11T06:22:55.510Z,4.80
2022-11-11T06:24:17.250Z,4.80
2022-11-11T06:25:56.469Z,4.80
2022-11-11T06:27:18.166Z,4.80
2022-11-11T06:28:39.295Z,4.70
2022-11-11T06:30:21.111Z,4.70
2022-11-11T06:31:42.293Z,4.70
2022-11-11T06:33:03.123Z,4.70
2022-11-11T06:34:25.004Z,4.70
2022-11-11T06:35:47.707Z,4.70
2022-11-11T06:37:09.320Z,4.80
2022-11-11T06:38:30.039Z,4.80
2022-11-11T06:39:51.786Z,4.90
2022-11-11T06:41:14.457Z,4.90
2022-11-11T06:42:37.982Z,5.00
2022-11-11T06:43:59.417Z,5.00
2022-11-11T06:45:21.068Z,5.00
2022-11-11T06:46:42.596Z,5.00
2022-11-11T06:48:04.388Z,5.00
2022-11-11T06:49:26.161Z,5.10
2022-11-11T06:50:48.241Z,5.10
2022-11-11T06:52:10.033Z,5.20
2022-11-11T06:53:32.351Z,5.30
2022-11-11T06:54:52.987Z,5.30
2022-11-11T06:56:14.909Z,5.40
2022-11-11T06:57:35.416Z,5.40
2022-11-11T06:58:57.092Z,5.50
2022-11-11T07:00:19.307Z,5.50
2022-11-11T07:01:41.002Z,5.50
2022-11-11T07:03:02.252Z,5.60
2022-11-11T07:04:23.739Z,5.70
2022-11-11T07:05:46.457Z,5.80
2022-11-11T07:07:08.358Z,5.80
2022-11-11T07:08:30.385Z,5.90
2022-11-11T07:09:52.066Z,6.00
2022-11-11T07:11:18.690Z,6.10
2022-11-11T07:12:41.226Z,6.10
2022-11-11T07:14:03.072Z,6.20
2022-11-11T07:15:23.831Z,6.30
2022-11-11T07:16:45.514Z,6.40
2022-11-11T07:18:07.584Z,6.50
2022-11-11T07:19:29.132Z,6.50
2022-11-11T07:20:50.812Z,6.60
2022-11-11T07:22:13.980Z,6.70
2022-11-11T07:23:35.714Z,6.80
2022-11-11T07:24:57.510Z,6.90
2022-11-11T07:26:19.205Z,7.00
2022-11-11T07:27:43.548Z,7.10
2022-11-11T07:29:04.233Z,7.20
2022-11-11T07:30:25.869Z,7.20
2022-11-11T07:31:47.714Z,7.30
2022-11-11T07:33:09.346Z,7.40
2022-11-11T07:34:30.936Z,7.40
2022-11-11T07:35:52.895Z,7.40
2022-11-11T07:37:15.988Z,7.40
2022-11-11T07:38:37.685Z,7.50
2022-11-11T07:39:59.248Z,7.60
2022-11-11T07:41:21.088Z,7.60
2022-11-11T07:42:44.025Z,7.70
2022-11-11T07:44:05.601Z,7.70
2022-11-11T07:45:26.966Z,7.70
2022-11-11T07:46:48.736Z,7.70
2022-11-11T07:48:10.790Z,7.70
2022-11-11T07:49:32.200Z,7.80
2022-11-11T07:50:54.417Z,7.70
2022-11-11T07:52:17.435Z,7.70
2022-11-11T07:53:39.087Z,7.60
2022-11-11T07:55:00.564Z,7.60
2022-11-11T07:56:21.921Z,7.50
2022-11-11T07:57:43.667Z,7.50
2022-11-11T07:59:05.404Z,7.50
2022-11-11T08:00:27.287Z,7.50
2022-11-11T08:01:48.908Z,7.50
2022-11-11T08:03:10.727Z,7.50
2022-11-11T08:04:32.553Z,7.50
2022-11-11T08:05:56.056Z,7.50
2022-11-11T08:07:22.917Z,7.60
2022-11-11T08:08:44.919Z,7.70
2022-11-11T08:10:07.282Z,7.80
2022-11-11T08:11:46.326Z,7.80
2022-11-11T08:13:26.012Z,7.90
2022-11-11T08:14:47.902Z,8.00
2022-11-11T08:16:10.407Z,8.10
2022-11-11T08:17:32.209Z,8.20
2022-11-11T08:18:54.364Z,8.30
2022-11-11T08:20:15.856Z,8.50
2022-11-11T08:21:37.536Z,8.50
2022-11-11T08:23:35.383Z,8.70
2022-11-11T08:26:29.510Z,9.00
2022-11-11T08:27:57.875Z,9.10
2022-11-11T08:29:19.555Z,9.30
2022-11-11T08:30:41.297Z,9.50
2022-11-11T08:32:03.060Z,9.60
2022-11-11T08:33:33.231Z,9.70
2022-11-11T08:34:55.620Z,9.90
2022-11-11T08:36:20.796Z,10.00
2022-11-11T08:37:42.699Z,10.10
2022-11-11T08:39:05.861Z,10.20
2022-11-11T08:40:27.379Z,10.40
2022-11-11T08:41:49.075Z,10.50
2022-11-11T08:43:10.734Z,10.60
2022-11-11T08:44:32.395Z,10.70
2022-11-11T08:45:54.580Z,10.90
2022-11-11T08:47:16.220Z,11.00
2022-11-11T08:48:37.975Z,11.10
2022-11-11T08:49:59.668Z,11.20
2022-11-11T08:51:21.603Z,11.30
2022-11-11T08:52:47.422Z,11.40
2022-11-11T08:54:10.433Z,11.40
2022-11-11T08:55:31.180Z,11.30
2022-11-11T08:56:52.808Z,11.40
2022-11-11T08:58:19.608Z,11.40
2022-11-11T08:59:41.534Z,11.30
2022-11-11T09:01:04.255Z,11.20
2022-11-11T09:02:26.229Z,11.10
2022-11-11T09:03:47.959Z,11.10
2022-11-11T09:05:10.211Z,11.00
2022-11-11T09:06:32.219Z,11.00
2022-11-11T09:07:54.042Z,11.00
2022-11-11T09:09:17.110Z,10.90
2022-11-11T09:10:38.881Z,10.90
2022-11-11T09:12:00.371Z,10.80
2022-11-11T09:13:22.311Z,10.80
2022-11-11T09:14:44.296Z,10.80
2022-11-11T09:16:06.580Z,10.80
2022-11-11T09:17:28.413Z,10.90
2022-11-11T09:18:49.949Z,11.00
2022-11-11T09:20:12.709Z,11.10
2022-11-11T09:21:34.365Z,11.30
2022-11-11T09:22:56.277Z,11.40
2022-11-11T09:24:19.387Z,11.40
2022-11-11T09:25:41.117Z,11.40
2022-11-11T09:27:02.751Z,11.50
2022-11-11T09:28:24.495Z,11.50
2022-11-11T09:29:46.376Z,11.60
2022-11-11T09:31:37.666Z,11.70
2022-11-11T09:32:49.203Z,11.90
2022-11-11T09:34:11.074Z,12.10
2022-11-11T09:35:33.013Z,12.20
2022-11-11T09:36:54.494Z,12.40
2022-11-11T09:38:16.376Z,12.60
2022-11-11T09:39:39.543Z,12.70
2022-11-11T09:41:15.995Z,12.80
2022-11-11T09:42:43.746Z,12.90
2022-11-11T09:44:05.786Z,13.00
2022-11-11T09:45:36.489Z,13.20
2022-11-11T09:47:05.439Z,13.30
2022-11-11T09:48:48.344Z,13.30
2022-11-11T09:50:13.121Z,13.30
2022-11-11T09:51:44.813Z,13.40
2022-11-11T09:53:16.785Z,13.40
2022-11-11T09:54:45.965Z,13.50
2022-11-11T09:56:29.798Z,13.50
2022-11-11T09:57:58.919Z,13.60
2022-11-11T09:59:25.135Z,13.80
2022-11-11T10:00:49.205Z,14.10
2022-11-11T10:02:23.595Z,14.10
2022-11-11T10:03:50.298Z,14.10
2022-11-11T10:05:16.220Z,14.20
2022-11-11T10:06:38.650Z,14.30
2022-11-11T10:08:05.192Z,14.40
2022-11-11T10:09:32.345Z,14.30
2022-11-11T10:10:56.752Z,14.40
2022-11-11T10:12:20.168Z,14.40
2022-11-11T10:13:41.695Z,14.50
2022-11-11T10:15:06.305Z,14.50
2022-11-11T10:16:40.376Z,14.60
2022-11-11T10:18:24.455Z,14.60
2022-11-11T10:19:58.791Z,14.70
2022-11-11T10:21:27.647Z,14.80
2022-11-11T10:22:54.543Z,14.80
2022-11-11T10:24:20.084Z,14.90
2022-11-11T10:25:48.101Z,14.90
2022-11-11T10:27:18.373Z,14.90
2022-11-11T10:28:44.499Z,15.00
2022-11-11T10:30:17.830Z,15.00
2022-11-11T10:31:41.615Z,15.20
2022-11-11T10:33:05.746Z,15.20
2022-11-11T10:34:33.214Z,15.20
2022-11-11T10:35:58.142Z,15.20
2022-11-11T10:37:23.495Z,15.20
2022-11-11T10:38:51.555Z,15.20
2022-11-11T10:40:19.654Z,15.10
2022-11-11T10:41:46.158Z,15.20
2022-11-11T10:43:24.339Z,15.20
2022-11-11T10:44:46.360Z,15.20
2022-11-11T10:46:15.526Z,15.20
2022-11-11T10:47:46.096Z,15.20
2022-11-11T10:49:12.280Z,15.20
2022-11-11T10:50:38.642Z,15.30
2022-11-11T10:52:07.054Z,15.30
2022-11-11T10:53:37.322Z,15.40
2022-11-11T10:55:05.026Z,15.50
2022-11-11T10:56:32.715Z,15.50
2022-11-11T10:57:58.189Z,15.30
2022-11-11T10:59:25.885Z,15.30
2022-11-11T11:00:50.796Z,15.00
2022-11-11T11:02:20.529Z,15.00
2022-11-11T11:03:48.504Z,14.90
2022-11-11T11:05:14.820Z,14.90
2022-11-11T11:06:41.201Z,15.00
2022-11-11T11:08:10.031Z,15.10
2022-11-11T11:09:39.042Z,15.00
2022-11-11T11:11:06.138Z,14.90
2022-11-11T11:12:33.626Z,14.90
2022-11-11T11:14:01.089Z,14.90
2022-11-11T11:15:26.437Z,14.90
2022-11-11T11:16:52.097Z,14.80
2022-11-11T11:18:15.307Z,14.90
2022-11-11T11:19:36.840Z,15.00
2022-11-11T11:21:00.420Z,15.10
2022-11-11T11:22:22.562Z,15.10
2022-11-11T11:23:45.472Z,15.30
2022-11-11T11:25:14.215Z,15.40
2022-11-11T11:26:45.730Z,15.50
2022-11-11T11:28:10.130Z,15.70
2022-11-11T11:29:33.925Z,15.80
2022-11-11T11:31:02.569Z,15.80
2022-11-11T11:32:29.821Z,15.90
2022-11-11T11:33:54.246Z,16.00
2022-11-11T11:35:32.401Z,16.10
2022-11-11T11:37:01.229Z,16.10
2022-11-11T11:38:41.696Z,16.20
2022-11-11T11:40:06.330Z,16.30
2022-11-11T11:41:38.799Z,16.40
2022-11-11T11:43:00.233Z,16.50
2022-11-11T11:44:28.870Z,16.60
2022-11-11T11:45:57.687Z,16.70
2022-11-11T11:47:36.351Z,16.80
2022-11-11T11:49:18.704Z,16.80
2022-11-11T11:50:47.964Z,16.90
2022-11-11T11:52:20.175Z,16.90
2022-11-11T11:53:52.900Z,16.90
2022-11-11T11:55:19.109Z,16.90
2022-11-11T11:56:43.210Z,16.80
2022-11-11T11:58:20.473Z,16.80
2022-11-11T11:59:46.282Z,16.80
2022-11-11T12:01:14.193Z,16.80
2022-11-11T12:03:13.657Z,16.80
2022-11-11T12:05:02.628Z,16.70
2022-11-11T12:06:35.380Z,16.60
2022-11-11T12:08:12.329Z,16.60
2022-11-11T12:09:43.676Z,16.50
2022-11-11T12:11:14.692Z,16.50
2022-11-11T12:12:44.619Z,16.50
2022-11-11T12:14:21.498Z,16.40
2022-11-11T12:15:50.919Z,16.30
2022-11-11T12:17:27.479Z,16.20
2022-11-11T12:19:08.002Z,16.00
2022-11-11T12:20:34.302Z,15.80
2022-11-11T12:22:04.277Z,15.60
2022-11-11T12:23:50.045Z,15.60
2022-11-11T12:25:21.281Z,15.60
2022-11-11T12:26:51.075Z,15.70
2022-11-11T12:28:26.530Z,15.70
2022-11-11T12:30:02.888Z,15.60
2022-11-11T12:31:31.862Z,15.50
2022-11-11T12:33:13.080Z,15.40
2022-11-11T12:35:03.357Z,15.30
2022-11-11T12:36:35.243Z,15.30
2022-11-11T12:38:08.036Z,15.40
2022-11-11T12:39:44.903Z,15.40
2022-11-11T12:41:12.885Z,15.50
2022-11-11T12:42:48.915Z,15.50
2022-11-11T12:44:12.550Z,15.50
2022-11-11T12:45:39.394Z,15.60
2022-11-11T12:47:19.084Z,15.70
2022-11-11T12:48:53.512Z,15.80
2022-11-11T12:50:22.748Z,15.80
2022-11-11T12:51:57.368Z,15.80
2022-11-11T12:53:28.679Z,15.80
2022-11-11T12:55:04.397Z,15.80
2022-11-11T12:56:33.815Z,15.90
2022-11-11T12:58:19.600Z,16.00
2022-11-11T13:00:04.418Z,16.10
2022-11-11T13:01:38.109Z,16.10
2022-11-11T13:03:23.053Z,16.10
2022-11-11T13:04:55.482Z,16.10
2022-11-11T13:06:39.817Z,16.20
2022-11-11T13:08:55.123Z,16.30
2022-11-11T13:10:29.566Z,16.30
2022-11-11T13:12:02.625Z,16.20
2022-11-11T13:13:39.284Z,16.20
2022-11-11T13:15:06.887Z,16.10
2022-11-11T13:16:28.524Z,16.10
2022-11-11T13:17:51.497Z,15.90
2022-11-11T13:19:20.621Z,15.70
2022-11-11T13:20:51.818Z,15.60
2022-11-11T13:22:23.237Z,15.50
2022-11-11T13:23:44.838Z,15.40
2022-11-11T13:25:09.934Z,15.40
2022-11-11T13:26:38.470Z,15.20
2022-11-11T13:28:06.776Z,15.10
2022-11-11T13:29:54.021Z,14.90
2022-11-11T13:31:23.786Z,14.80
2022-11-11T13:32:49.493Z,14.80
2022-11-11T13:34:13.498Z,14.70
2022-11-11T13:35:40.717Z,14.60
2022-11-11T13:37:06.776Z,14.50
2022-11-11T13:38:34.601Z,14.50
2022-11-11T13:40:04.411Z,14.50
2022-11-11T13:41:29.810Z,14.40
2022-11-11T13:42:53.798Z,14.40
2022-11-11T13:44:24.692Z,14.40
2022-11-11T13:45:52.743Z,14.30
2022-11-11T13:47:20.577Z,14.30
2022-11-11T13:48:50.032Z,14.30
2022-11-11T13:50:28.057Z,14.20
2022-11-11T13:51:59.108Z,14.20
2022-11-11T13:53:29.149Z,14.10
2022-11-11T13:55:03.467Z,14.10
2022-11-11T13:56:28.638Z,14.00
2022-11-11T13:57:52.792Z,14.00
2022-11-11T13:59:22.797Z,14.00
2022-11-11T14:00:44.670Z,14.10
2022-11-11T14:02:31.511Z,14.10
2022-11-11T14:04:01.615Z,14.20
2022-11-11T14:05:26.125Z,14.20
2022-11-11T14:06:56.835Z,14.20
2022-11-11T14:08:52.736Z,14.20
2022-11-11T14:10:54.684Z,14.30
2022-11-11T14:12:38.066Z,14.30
2022-11-11T14:14:20.631Z,14.30
2022-11-11T14:15:44.757Z,14.30
2022-11-11T14:17:13.976Z,14.30
2022-11-11T14:18:45.130Z,14.30
2022-11-11T14:20:34.720Z,14.30
2022-11-11T14:21:59.790Z,14.30
2022-11-11T14:23:39.901Z,14.30
2022-11-11T14:25:23.384Z,14.40
2022-11-11T14:26:58.839Z,14.40
2022-11-11T14:28:27.759Z,14.50
2022-11-11T14:29:51.933Z,14.50
2022-11-11T14:31:52.923Z,14.60
2022-11-11T14:33:25.079Z,14.60
2022-11-11T14:34:59.715Z,14.60
2022-11-11T14:36:25.498Z,14.60
2022-11-11T14:38:22.459Z,14.60
2022-11-11T14:39:49.013Z,14.70
2022-11-11T14:41:47.767Z,14.70
2022-11-11T14:43:38.136Z,14.70
2022-11-11T14:44:59.970Z,14.70
2022-11-11T14:46:21.745Z,14.70
2022-11-11T14:47:42.838Z,14.70
2022-11-11T14:49:04.709Z,14.70
2022-11-11T14:50:43.886Z,14.70
2022-11-11T14:52:29.499Z,14.80
2022-11-11T14:53:53.204Z,14.90
2022-11-11T14:55:19.113Z,14.90
2022-11-11T14:56:40.085Z,14.90
2022-11-11T14:58:12.638Z,14.90
2022-11-11T14:59:35.168Z,14.80
2022-11-11T15:01:10.114Z,14.80
2022-11-11T15:02:36.341Z,14.70
2022-11-11T15:03:58.546Z,14.50
2022-11-11T15:05:28.346Z,14.40
2022-11-11T15:06:54.969Z,14.30
2022-11-11T15:08:23.467Z,14.20
2022-11-11T15:10:01.684Z,14.00
2022-11-11T15:11:32.452Z,13.90
2022-11-11T15:13:30.388Z,13.70
2022-11-11T15:15:02.995Z,13.60
2022-11-11T15:16:35.391Z,13.40
2022-11-11T15:18:08.052Z,13.30
2022-11-11T15:19:42.357Z,13.20
2022-11-11T15:21:10.436Z,13.10
2022-11-11T15:22:52.095Z,13.00
2022-11-11T15:24:31.559Z,12.80
2022-11-11T15:26:01.490Z,12.70
2022-11-11T15:27:31.276Z,12.60
2022-11-11T15:29:12.288Z,12.40
2022-11-11T15:30:57.877Z,12.30
2022-11-11T15:32:30.573Z,12.20
2022-11-11T15:34:00.473Z,12.00
2022-11-11T15:35:35.939Z,11.90
2022-11-11T15:36:59.710Z,11.70
2022-11-11T15:38:21.859Z,11.60
2022-11-11T15:39:47.350Z,11.60
2022-11-11T15:41:23.688Z,11.50
2022-11-11T15:42:48.041Z,11.40
2022-11-11T15:44:19.410Z,11.30
2022-11-11T15:45:42.084Z,11.20
2022-11-11T15:47:05.086Z,11.10
2022-11-11T15:48:29.859Z,11.00
2022-11-11T15:49:51.840Z,10.90
2022-11-11T15:51:17.593Z,10.80
2022-11-11T15:52:39.324Z,10.70
2022-11-11T15:54:22.324Z,10.60
2022-11-11T15:55:54.014Z,10.60
2022-11-11T15:57:26.798Z,10.50
2022-11-11T15:58:48.543Z,10.50
2022-11-11T16:00:31.223Z,10.40
2022-11-11T16:01:53.728Z,10.30
2022-11-11T16:03:16.779Z,10.20
2022-11-11T16:04:55.707Z,10.20
2022-11-11T16:06:18.692Z,10.10
2022-11-11T16:07:47.909Z,10.00
2022-11-11T16:09:14.196Z,10.00
2022-11-11T16:10:37.846Z,9.90
2022-11-11T16:11:58.769Z,9.80
2022-11-11T16:13:22.769Z,9.80
2022-11-11T16:14:48.282Z,9.70
2022-11-11T16:16:14.891Z,9.70
2022-11-11T16:17:41.864Z,9.60
2022-11-11T16:19:06.913Z,9.50
2022-11-11T16:20:32.125Z,9.50
2022-11-11T16:22:00.852Z,9.40
2022-11-11T16:23:23.894Z,9.40
2022-11-11T16:24:46.086Z,9.30
2022-11-11T16:26:08.787Z,9.30
2022-11-11T16:27:33.778Z,9.30
2022-11-11T16:28:56.839Z,9.20
2022-11-11T16:30:29.295Z,9.10
2022-11-11T16:31:52.115Z,9.10
2022-11-11T16:33:32.714Z,9.00
2022-11-11T16:34:54.933Z,9.00
2022-11-11T16:36:16.639Z,8.90
2022-11-11T16:37:52.248Z,8.90
2022-11-11T16:39:15.332Z,8.90
2022-11-11T16:40:42.473Z,8.90
2022-11-11T16:42:06.356Z,8.80
2022-11-11T16:43:30.241Z,8.80
2022-11-11T16:44:58.189Z,8.70
2022-11-11T16:46:42.123Z,8.70
2022-11-11T16:48:05.756Z,8.70
2022-11-11T16:49:30.197Z,8.60
2022-11-11T16:50:57.342Z,8.60
2022-11-11T16:52:21.636Z,8.50
2022-11-11T16:53:46.325Z,8.50
2022-11-11T16:55:10.473Z,8.50
2022-11-11T16:56:32.806Z,8.40
2022-11-11T16:57:54.916Z,8.40
2022-11-11T16:59:21.905Z,8.40
2022-11-11T17:00:44.358Z,8.40
2022-11-11T17:02:15.791Z,8.40
2022-11-11T17:03:54.492Z,8.40
2022-11-11T17:05:16.136Z,8.40
2022-11-11T17:06:52.478Z,8.40
2022-11-11T17:08:30.907Z,8.30
2022-11-11T17:09:52.455Z,8.30
2022-11-11T17:11:43.605Z,8.20
2022-11-11T17:13:08.086Z,8.20
2022-11-11T17:14:31.707Z,8.10
2022-11-11T17:15:53.887Z,8.10
2022-11-11T17:17:15.379Z,8.10
2022-11-11T17:18:40.523Z,8.10
2022-11-11T17:20:05.287Z,8.00
2022-11-11T17:21:26.875Z,8.00
2022-11-11T17:22:50.433Z,8.00
2022-11-11T17:24:14.496Z,7.90
2022-11-11T17:25:36.215Z,7.90
2022-11-11T17:26:57.087Z,7.80
2022-11-11T17:28:19.948Z,7.80
2022-11-11T17:29:41.776Z,7.80
2022-11-11T17:31:04.809Z,7.80
2022-11-11T17:32:26.384Z,7.70
2022-11-11T17:33:49.576Z,7.70
2022-11-11T17:35:12.064Z,7.70
2022-11-11T17:36:32.884Z,7.70
2022-11-11T17:37:54.361Z,7.70
2022-11-11T17:39:16.036Z,7.80
2022-11-11T17:40:37.687Z,7.80
2022-11-11T17:41:59.349Z,7.80
2022-11-11T17:43:21.445Z,7.70
2022-11-11T17:44:43.015Z,7.80
2022-11-11T17:46:05.027Z,7.80
2022-11-11T17:47:26.424Z,7.80
2022-11-11T17:48:49.537Z,7.70
2022-11-11T17:50:11.438Z,7.70
2022-11-11T17:51:33.057Z,7.70
2022-11-11T17:52:56.905Z,7.60
2022-11-11T17:54:18.543Z,7.70
2022-11-11T17:55:40.279Z,7.70
2022-11-11T17:57:01.851Z,7.70
2022-11-11T17:58:22.627Z,7.70
2022-11-11T17:59:44.151Z,7.70
2022-11-11T18:01:06.537Z,7.70
2022-11-11T18:02:28.132Z,7.80
2022-11-11T18:03:51.141Z,7.80
2022-11-11T18:05:14.074Z,7.80
2022-11-11T18:06:35.651Z,7.90
2022-11-11T18:07:59.350Z,7.90
2022-11-11T18:09:20.960Z,7.90
2022-11-11T18:10:41.787Z,7.90
2022-11-11T18:12:03.754Z,7.90
2022-11-11T18:13:24.883Z,7.90
2022-11-11T18:14:46.652Z,8.00
2022-11-11T18:16:15.492Z,8.00
2022-11-11T18:17:37.100Z,8.00
2022-11-11T18:19:01.475Z,8.00
2022-11-11T18:20:22.997Z,8.00
2022-11-11T18:21:44.911Z,8.00
2022-11-11T18:23:06.526Z,8.00
2022-11-11T18:24:28.148Z,7.90
2022-11-11T18:25:49.786Z,7.90
2022-11-11T18:27:11.544Z,7.90
2022-11-11T18:28:33.480Z,7.90
2022-11-11T18:29:54.957Z,7.80
2022-11-11T18:31:17.147Z,7.80
2022-11-11T18:32:38.583Z,7.70
2022-11-11T18:34:01.556Z,7.70
2022-11-11T18:35:23.171Z,7.70
2022-11-11T18:36:44.831Z,7.60
2022-11-11T18:38:07.136Z,7.60
2022-11-11T18:39:29.274Z,7.60
2022-11-11T18:40:51.595Z,7.60
2022-11-11T18:42:13.450Z,7.60
2022-11-11T18:43:40.983Z,7.60
2022-11-11T18:45:02.615Z,7.60
2022-11-11T18:46:26.005Z,7.60
2022-11-11T18:47:50.891Z,7.50
2022-11-11T18:49:15.491Z,7.50
2022-11-11T18:50:37.452Z,7.50
2022-11-11T18:51:59.335Z,7.50
2022-11-11T18:53:20.973Z,7.50
2022-11-11T18:54:42.619Z,7.50
2022-11-11T18:56:05.640Z,7.50
2022-11-11T18:57:27.232Z,7.50
2022-11-11T18:58:50.161Z,7.50
2022-11-11T19:00:12.669Z,7.50
2022-11-11T19:01:38.193Z,7.60
2022-11-11T19:02:59.891Z,7.60
2022-11-11T19:04:22.652Z,7.60